Terminal Aerodrome Forecast
Issued by NWS

Home | Current Version | Previous Version | Text Only | Print | Product List | Glossary On
Versions: 1 2 3 4 5 6 7 8 9 10 11 12 13 14 15
000
FTUS42 KTBW 221800 AAA
TAFPGD
TAF AMD
KPGD 221850Z 2219/2318 20012KT P6SM SCT025 OVC100
     FM230600 16004KT 3SM BR SCT002 BKN025
     FM231000 14004KT 3SM BR SCT001 BKN025
     FM231500 17012KT 5SM BR FEW010 BKN050=

USA.gov is the U.S. government's official web portal to all federal, state and local government web resources and services.